createdAt,value
2024-05-09T00:00:22.437Z,59.91
2024-05-09T00:01:34.983Z,59.96
2024-05-09T00:02:37.275Z,60.28
2024-05-09T00:03:46.969Z,59.82
2024-05-09T00:04:49.245Z,60.25
2024-05-09T00:05:54.150Z,60.44
2024-05-09T00:06:56.383Z,60.57
2024-05-09T00:08:01.385Z,60.05
2024-05-09T00:09:05.817Z,59.89
2024-05-09T00:10:18.261Z,60.00
2024-05-09T00:11:27.672Z,59.61
2024-05-09T00:12:35.111Z,59.39
2024-05-09T00:13:37.260Z,59.98
2024-05-09T00:14:44.229Z,59.54
2024-05-09T00:15:46.403Z,60.24
2024-05-09T00:16:51.408Z,60.08
2024-05-09T00:17:53.675Z,59.79
2024-05-09T00:18:58.593Z,59.76
2024-05-09T00:20:06.919Z,59.82
2024-05-09T00:21:16.233Z,59.55
2024-05-09T00:22:18.612Z,59.71
2024-05-09T00:23:23.489Z,60.07
2024-05-09T00:24:25.768Z,60.04
2024-05-09T00:25:32.689Z,60.33
2024-05-09T00:26:35.062Z,59.99
2024-05-09T00:27:42.714Z,59.76
2024-05-09T00:28:46.979Z,60.30
2024-05-09T00:29:51.907Z,60.59
2024-05-09T00:30:56.220Z,60.12
2024-05-09T00:32:01.144Z,60.19
2024-05-09T00:33:04.259Z,59.93
2024-05-09T00:34:09.997Z,60.38
2024-05-09T00:35:12.471Z,60.87
2024-05-09T00:36:19.529Z,59.95
2024-05-09T00:37:22.057Z,60.54
2024-05-09T00:38:26.927Z,59.82
2024-05-09T00:39:29.198Z,59.93
2024-05-09T00:40:40.851Z,59.87
2024-05-09T00:41:47.041Z,60.62
2024-05-09T00:42:54.470Z,60.33
2024-05-09T00:43:56.726Z,60.01
2024-05-09T00:45:01.577Z,59.63
2024-05-09T00:46:04.476Z,60.30
2024-05-09T00:47:11.794Z,59.83
2024-05-09T00:48:19.729Z,59.92
2024-05-09T00:49:28.096Z,60.07
2024-05-09T00:50:36.408Z,59.91
2024-05-09T00:51:44.799Z,59.49
2024-05-09T00:52:49.910Z,60.40
2024-05-09T00:53:54.748Z,59.96
2024-05-09T00:54:57.234Z,60.28
2024-05-09T00:56:02.694Z,60.33
2024-05-09T00:57:07.052Z,60.16
2024-05-09T00:58:20.964Z,60.07
2024-05-09T00:59:26.890Z,60.87
2024-05-09T01:00:38.809Z,59.96
2024-05-09T01:01:44.365Z,59.89
2024-05-09T01:02:49.366Z,59.92
2024-05-09T01:05:09.277Z,60.08
2024-05-09T01:06:15.153Z,60.15
2024-05-09T01:07:17.374Z,60.00
2024-05-09T01:08:22.279Z,60.13
2024-05-09T01:09:26.567Z,60.18
2024-05-09T01:10:34.813Z,60.19
2024-05-09T01:11:39.253Z,60.02
2024-05-09T01:12:44.216Z,60.11
2024-05-09T01:13:49.038Z,59.90
2024-05-09T01:14:55.910Z,60.28
2024-05-09T01:15:58.606Z,60.24
2024-05-09T01:17:03.979Z,60.16
2024-05-09T01:18:10.477Z,59.83
2024-05-09T01:20:39.556Z,60.40
2024-05-09T01:21:50.090Z,59.72
2024-05-09T01:22:52.806Z,60.21
2024-05-09T01:24:00.197Z,60.40
2024-05-09T01:25:02.429Z,60.21
2024-05-09T01:26:05.067Z,60.26
2024-05-09T01:27:11.871Z,59.62
2024-05-09T01:28:15.256Z,60.29
2024-05-09T01:29:22.641Z,59.92
2024-05-09T01:30:31.874Z,60.02
2024-05-09T01:31:40.205Z,60.35
2024-05-09T01:32:44.738Z,60.08
2024-05-09T01:33:49.961Z,59.96
2024-05-09T01:34:52.315Z,60.02
2024-05-09T01:35:57.246Z,59.96
2024-05-09T01:36:59.424Z,60.23
2024-05-09T01:38:06.795Z,59.73
2024-05-09T01:39:11.881Z,60.11
2024-05-09T01:40:22.012Z,59.98
2024-05-09T01:41:27.273Z,59.80
2024-05-09T01:42:32.298Z,59.96
2024-05-09T01:43:36.643Z,59.85
2024-05-09T01:44:43.419Z,60.40
2024-05-09T01:45:45.807Z,59.90
2024-05-09T01:46:50.744Z,60.22
2024-05-09T01:47:53.303Z,60.07
2024-05-09T01:49:00.835Z,59.75
2024-05-09T01:50:06.635Z,60.10
2024-05-09T01:51:13.762Z,60.02
2024-05-09T01:52:16.815Z,60.73
2024-05-09T01:53:21.868Z,60.21
2024-05-09T01:54:28.961Z,60.18
2024-05-09T01:55:33.969Z,60.11
2024-05-09T01:56:36.212Z,60.14
2024-05-09T01:57:41.440Z,60.22
2024-05-09T01:58:43.855Z,60.37
2024-05-09T01:59:50.861Z,60.26
2024-05-09T02:00:53.762Z,60.18
2024-05-09T02:01:58.751Z,60.02
2024-05-09T02:03:01.445Z,59.92
2024-05-09T02:04:06.976Z,60.32
2024-05-09T02:05:12.315Z,60.71
2024-05-09T02:06:17.816Z,60.39
2024-05-09T02:07:20.179Z,60.20
2024-05-09T02:08:25.192Z,60.06
2024-05-09T02:09:30.174Z,60.43
2024-05-09T02:10:37.154Z,60.24
2024-05-09T02:11:44.338Z,59.65
2024-05-09T02:12:49.448Z,60.21
2024-05-09T02:13:51.897Z,60.15
2024-05-09T02:14:56.880Z,60.01
2024-05-09T02:16:01.336Z,60.14
2024-05-09T02:17:07.474Z,60.20
2024-05-09T02:18:11.083Z,60.15
2024-05-09T02:19:16.552Z,60.18
2024-05-09T02:20:44.455Z,59.97
2024-05-09T02:21:54.809Z,60.11
2024-05-09T02:22:57.523Z,59.84
2024-05-09T02:24:02.602Z,59.99
2024-05-09T02:25:07.686Z,59.84
2024-05-09T02:26:09.886Z,60.24
2024-05-09T02:27:17.252Z,59.99
2024-05-09T02:28:21.297Z,60.00
2024-05-09T02:29:26.167Z,60.26
2024-05-09T02:31:36.146Z,60.21
2024-05-09T02:32:40.776Z,60.15
2024-05-09T02:33:46.044Z,60.52
2024-05-09T02:34:48.355Z,60.32
2024-05-09T02:35:50.700Z,60.83
2024-05-09T02:36:56.440Z,60.59
2024-05-09T02:38:00.959Z,60.53
2024-05-09T02:39:03.139Z,59.91
2024-05-09T02:40:11.623Z,60.46
2024-05-09T02:41:19.260Z,60.36
2024-05-09T02:42:21.462Z,60.31
2024-05-09T02:43:25.673Z,60.70
2024-05-09T02:44:28.059Z,60.34
2024-05-09T02:45:33.119Z,60.12
2024-05-09T02:46:35.503Z,60.20
2024-05-09T02:47:37.914Z,60.44
2024-05-09T02:48:42.592Z,60.18
2024-05-09T02:49:47.508Z,60.34
2024-05-09T02:50:49.725Z,61.03
2024-05-09T02:51:51.914Z,60.19
2024-05-09T02:52:56.735Z,60.73
2024-05-09T02:54:00.991Z,61.02
2024-05-09T02:55:03.182Z,60.80
2024-05-09T02:56:08.268Z,60.22
2024-05-09T02:57:13.063Z,60.69
2024-05-09T02:58:15.216Z,60.58
2024-05-09T02:59:19.431Z,59.89
2024-05-09T03:00:26.745Z,60.39
2024-05-09T03:01:39.756Z,60.73
2024-05-09T03:02:43.411Z,60.29
2024-05-09T03:03:48.433Z,60.29
2024-05-09T03:04:52.934Z,60.25
2024-05-09T03:05:57.750Z,60.43
2024-05-09T03:06:59.954Z,60.66
2024-05-09T03:08:02.198Z,60.75
2024-05-09T03:09:04.903Z,60.03
2024-05-09T03:10:18.585Z,60.52
2024-05-09T03:11:30.155Z,60.52
2024-05-09T03:12:32.390Z,60.15
2024-05-09T03:13:34.572Z,60.45
2024-05-09T03:14:39.429Z,60.78
2024-05-09T03:15:43.867Z,60.33
2024-05-09T03:16:46.137Z,60.69
2024-05-09T03:17:48.439Z,60.43
2024-05-09T03:18:54.758Z,60.55
2024-05-09T03:19:59.003Z,60.73
2024-05-09T03:21:03.512Z,60.70
2024-05-09T03:22:08.412Z,60.37
2024-05-09T03:23:10.656Z,60.56
2024-05-09T03:24:13.337Z,60.25
2024-05-09T03:25:15.519Z,60.43
2024-05-09T03:26:22.327Z,60.47
2024-05-09T03:27:27.195Z,60.30
2024-05-09T03:28:29.307Z,60.24
2024-05-09T03:29:31.548Z,60.60
2024-05-09T03:30:41.409Z,60.20
2024-05-09T03:31:47.428Z,60.06
2024-05-09T03:32:49.770Z,60.14
2024-05-09T03:33:52.259Z,60.39
2024-05-09T03:34:57.086Z,60.62
2024-05-09T03:35:59.355Z,60.93
2024-05-09T03:37:06.692Z,60.43
2024-05-09T03:38:09.139Z,60.72
2024-05-09T03:39:12.119Z,60.06
2024-05-09T03:40:23.428Z,60.46
2024-05-09T03:41:28.555Z,60.44
2024-05-09T03:42:41.625Z,60.56
2024-05-09T03:43:44.361Z,60.36
2024-05-09T03:44:46.428Z,60.29
2024-05-09T03:45:52.287Z,60.57
2024-05-09T03:46:54.454Z,60.55
2024-05-09T03:47:59.076Z,60.75
2024-05-09T03:49:01.472Z,60.78
2024-05-09T03:50:14.981Z,60.55
2024-05-09T03:51:20.149Z,60.75
2024-05-09T03:52:22.326Z,60.66
2024-05-09T03:53:29.153Z,60.29
2024-05-09T03:54:31.662Z,60.48
2024-05-09T03:55:33.839Z,60.92
2024-05-09T03:56:36.305Z,60.18
2024-05-09T03:57:43.764Z,60.29
2024-05-09T03:58:47.984Z,60.09
2024-05-09T03:59:50.202Z,60.40
2024-05-09T04:00:52.474Z,60.68
2024-05-09T04:01:57.761Z,60.36
2024-05-09T04:03:00.774Z,60.59
2024-05-09T04:04:05.373Z,60.55
2024-05-09T04:05:07.568Z,60.55
2024-05-09T04:06:12.618Z,60.27
2024-05-09T04:07:15.181Z,60.56
2024-05-09T04:08:17.333Z,60.51
2024-05-09T04:09:21.523Z,60.60
2024-05-09T04:10:32.423Z,60.19
2024-05-09T04:11:36.352Z,60.51
2024-05-09T04:12:41.175Z,60.19
2024-05-09T04:13:43.754Z,60.42
2024-05-09T04:14:50.646Z,60.19
2024-05-09T04:15:52.927Z,60.62
2024-05-09T04:16:55.188Z,60.58
2024-05-09T04:17:57.628Z,60.64
2024-05-09T04:19:02.628Z,60.87
2024-05-09T04:20:10.492Z,60.50
2024-05-09T04:21:13.030Z,60.57
2024-05-09T04:22:18.107Z,60.70
2024-05-09T04:23:20.346Z,60.61
2024-05-09T04:24:22.994Z,60.87
2024-05-09T04:25:30.232Z,60.87
2024-05-09T04:26:32.546Z,60.70
2024-05-09T04:27:34.895Z,60.67
2024-05-09T04:28:42.377Z,60.52
2024-05-09T04:29:44.710Z,60.38
2024-05-09T04:30:49.030Z,61.02
2024-05-09T04:31:53.970Z,60.70
2024-05-09T04:32:56.300Z,60.52
2024-05-09T04:33:58.674Z,60.90
2024-05-09T04:35:01.164Z,60.42
2024-05-09T04:36:10.389Z,60.52
2024-05-09T04:37:12.830Z,60.34
2024-05-09T04:38:16.091Z,60.52
2024-05-09T04:39:18.525Z,60.96
2024-05-09T04:40:30.791Z,60.52
2024-05-09T04:41:38.620Z,60.95
2024-05-09T04:42:40.924Z,60.98
2024-05-09T04:43:46.326Z,60.99
2024-05-09T04:44:52.980Z,61.25
2024-05-09T04:45:56.297Z,60.90
2024-05-09T04:47:00.497Z,60.92
2024-05-09T04:48:03.169Z,60.54
2024-05-09T04:49:08.740Z,60.75
2024-05-09T04:50:14.543Z,60.55
2024-05-09T04:51:19.668Z,60.49
2024-05-09T04:52:23.857Z,60.69
2024-05-09T04:53:28.681Z,60.67
2024-05-09T04:54:36.136Z,60.80
2024-05-09T04:55:40.042Z,60.76
2024-05-09T04:56:42.702Z,61.10
2024-05-09T04:57:49.704Z,60.52
2024-05-09T04:58:54.470Z,60.81
2024-05-09T04:59:58.010Z,61.55
2024-05-09T05:01:01.051Z,60.56
2024-05-09T05:02:05.934Z,60.51
2024-05-09T05:03:14.264Z,61.29
2024-05-09T05:04:18.312Z,60.28
2024-05-09T05:05:20.607Z,60.20
2024-05-09T05:06:22.720Z,60.74
2024-05-09T05:07:27.559Z,61.29
2024-05-09T05:08:32.041Z,60.92
2024-05-09T05:09:35.346Z,60.38
2024-05-09T05:10:37.519Z,60.73
2024-05-09T05:11:42.389Z,60.61
2024-05-09T05:13:03.169Z,60.78
2024-05-09T05:14:11.735Z,60.78
2024-05-09T05:15:14.143Z,60.91
2024-05-09T05:16:19.193Z,61.26
2024-05-09T05:17:21.571Z,61.76
2024-05-09T05:18:24.512Z,61.01
2024-05-09T05:19:29.099Z,60.92
2024-05-09T05:20:34.480Z,61.36
2024-05-09T05:21:36.792Z,62.32
2024-05-09T05:22:40.631Z,61.65
2024-05-09T05:23:45.567Z,61.25
2024-05-09T05:24:49.836Z,61.01
2024-05-09T05:25:53.598Z,60.77
2024-05-09T05:26:56.218Z,60.93
2024-05-09T05:28:00.968Z,60.64
2024-05-09T05:29:03.266Z,61.53
2024-05-09T05:30:17.560Z,61.50
2024-05-09T05:31:23.436Z,62.14
2024-05-09T05:32:28.458Z,61.28
2024-05-09T05:33:30.995Z,61.98
2024-05-09T05:34:33.548Z,62.59
2024-05-09T05:35:37.793Z,62.11
2024-05-09T05:36:42.573Z,61.74
2024-05-09T05:37:44.812Z,61.47
2024-05-09T05:38:47.066Z,61.13
2024-05-09T05:39:49.321Z,62.38
2024-05-09T05:40:56.362Z,62.83
2024-05-09T05:41:58.635Z,62.96
2024-05-09T05:43:00.838Z,62.10
2024-05-09T05:44:03.109Z,61.58
2024-05-09T05:45:09.898Z,61.11
2024-05-09T05:46:16.900Z,61.24
2024-05-09T05:47:19.651Z,61.36
2024-05-09T05:48:24.852Z,61.06
2024-05-09T05:49:27.340Z,61.00
2024-05-09T05:50:35.695Z,60.83
2024-05-09T05:51:44.600Z,60.69
2024-05-09T05:52:46.842Z,61.35
2024-05-09T05:53:49.361Z,62.37
2024-05-09T05:54:54.399Z,63.02
2024-05-09T05:55:56.668Z,61.86
2024-05-09T05:57:00.996Z,62.88
2024-05-09T05:58:03.688Z,61.82
2024-05-09T05:59:08.526Z,61.63
2024-05-09T06:00:17.978Z,61.66
2024-05-09T06:01:26.505Z,63.09
2024-05-09T06:02:31.062Z,61.92
2024-05-09T06:03:35.968Z,63.06
2024-05-09T06:04:38.199Z,63.06
2024-05-09T06:05:41.110Z,62.50
2024-05-09T06:06:43.387Z,62.04
2024-05-09T06:07:50.294Z,62.56
2024-05-09T06:08:52.660Z,61.92
2024-05-09T06:09:54.808Z,62.18
2024-05-09T06:10:57.170Z,62.44
2024-05-09T06:12:02.143Z,62.69
2024-05-09T06:13:06.612Z,62.63
2024-05-09T06:14:09.448Z,63.61
2024-05-09T06:15:11.697Z,63.36
2024-05-09T06:16:16.412Z,62.60
2024-05-09T06:17:21.345Z,63.19
2024-05-09T06:18:26.020Z,63.65
2024-05-09T06:19:28.625Z,63.65
2024-05-09T06:20:36.583Z,63.61
2024-05-09T06:21:40.508Z,63.86
2024-05-09T06:22:42.637Z,63.63
2024-05-09T06:23:47.707Z,63.26
2024-05-09T06:24:52.618Z,63.55
2024-05-09T06:25:54.879Z,62.80
2024-05-09T06:26:57.053Z,62.70
2024-05-09T06:28:01.042Z,62.69
2024-05-09T06:29:07.943Z,62.32
2024-05-09T06:30:21.094Z,62.76
2024-05-09T06:31:28.304Z,62.76
2024-05-09T06:32:35.790Z,63.27
2024-05-09T06:33:38.140Z,62.31
2024-05-09T06:34:43.217Z,63.54
2024-05-09T06:35:48.706Z,63.19
2024-05-09T06:36:51.538Z,62.70
2024-05-09T06:37:53.718Z,62.09
2024-05-09T06:38:55.852Z,62.39
2024-05-09T06:40:03.157Z,62.95
2024-05-09T06:41:07.811Z,64.22
2024-05-09T06:42:10.021Z,63.83
2024-05-09T06:43:12.744Z,63.63
2024-05-09T06:44:17.659Z,63.50
2024-05-09T06:45:22.327Z,63.23
2024-05-09T06:46:25.451Z,63.17
2024-05-09T06:47:27.936Z,62.91
2024-05-09T06:48:35.803Z,63.27
2024-05-09T06:49:38.158Z,62.87
2024-05-09T06:50:42.468Z,63.29
2024-05-09T06:51:44.789Z,63.25
2024-05-09T06:52:49.791Z,63.01
2024-05-09T06:53:52.353Z,62.63
2024-05-09T06:54:54.481Z,63.17
2024-05-09T06:55:59.717Z,63.45
2024-05-09T06:57:04.535Z,63.31
2024-05-09T06:58:07.340Z,62.54
2024-05-09T06:59:09.573Z,62.07
2024-05-09T07:00:15.677Z,62.79
2024-05-09T07:01:29.268Z,62.13
2024-05-09T07:02:32.104Z,62.24
2024-05-09T07:03:37.026Z,62.50
2024-05-09T07:04:41.852Z,62.10
2024-05-09T07:05:48.481Z,62.30
2024-05-09T07:06:53.674Z,62.29
2024-05-09T07:07:55.939Z,62.83
2024-05-09T07:09:00.780Z,63.30
2024-05-09T07:10:03.934Z,62.90
2024-05-09T07:11:06.175Z,63.30
2024-05-09T07:12:13.222Z,62.77
2024-05-09T07:13:15.871Z,63.63
2024-05-09T07:14:18.295Z,62.96
2024-05-09T07:15:23.095Z,62.01
2024-05-09T07:16:25.245Z,62.08
2024-05-09T07:17:29.772Z,61.85
2024-05-09T07:18:34.887Z,61.18
2024-05-09T07:19:39.920Z,61.14
2024-05-09T07:20:42.496Z,60.69
2024-05-09T07:21:47.423Z,61.28
2024-05-09T07:22:51.806Z,61.50
2024-05-09T07:23:54.129Z,60.78
2024-05-09T07:24:56.303Z,61.47
2024-05-09T07:26:01.120Z,61.88
2024-05-09T07:27:04.363Z,62.29
2024-05-09T07:28:11.208Z,61.98
2024-05-09T07:29:16.034Z,62.11
2024-05-09T07:30:23.849Z,61.73
2024-05-09T07:31:33.003Z,61.33
2024-05-09T07:32:35.421Z,61.96
2024-05-09T07:33:42.366Z,62.15
2024-05-09T07:34:47.206Z,62.14
2024-05-09T07:35:49.496Z,61.99
2024-05-09T07:36:52.240Z,61.71
2024-05-09T07:37:57.074Z,62.64
2024-05-09T07:39:01.379Z,62.40
2024-05-09T07:40:05.818Z,62.70
2024-05-09T07:41:08.839Z,62.60
2024-05-09T07:42:13.785Z,63.12
2024-05-09T07:43:16.421Z,63.31
2024-05-09T07:44:20.855Z,62.69
2024-05-09T07:45:41.666Z,62.45
2024-05-09T07:47:48.667Z,62.25
2024-05-09T07:49:44.785Z,61.73
2024-05-09T07:53:21.495Z,61.92
2024-05-09T07:53:37.844Z,61.66
2024-05-09T07:54:42.988Z,61.60
2024-05-09T07:55:45.375Z,61.59
2024-05-09T07:56:47.848Z,61.88
2024-05-09T07:57:52.990Z,61.40
2024-05-09T07:58:55.753Z,61.21
2024-05-09T08:00:00.302Z,60.63
2024-05-09T08:01:02.752Z,60.59
2024-05-09T08:02:08.446Z,60.89
2024-05-09T08:03:10.739Z,60.60
2024-05-09T08:04:13.031Z,60.60
2024-05-09T08:05:20.128Z,60.10
2024-05-09T08:06:25.948Z,60.53
2024-05-09T08:07:28.317Z,61.12
2024-05-09T08:08:33.096Z,60.60
2024-05-09T08:09:38.577Z,60.67
2024-05-09T08:10:43.162Z,60.47
2024-05-09T08:11:45.482Z,61.32
2024-05-09T08:12:50.346Z,61.76
2024-05-09T08:13:52.744Z,61.93
2024-05-09T08:14:56.349Z,61.65
2024-05-09T08:16:00.871Z,59.84
2024-05-09T08:17:06.355Z,59.51
2024-05-09T08:18:09.028Z,59.03
2024-05-09T08:19:11.589Z,58.82
2024-05-09T08:20:22.501Z,58.90
2024-05-09T08:21:44.554Z,58.62
2024-05-09T08:22:47.402Z,59.01
2024-05-09T08:23:49.551Z,58.58
2024-05-09T08:24:51.861Z,58.69
2024-05-09T08:25:57.019Z,58.70
2024-05-09T08:27:01.728Z,59.46
2024-05-09T08:28:04.635Z,57.82
2024-05-09T08:29:09.624Z,58.01
2024-05-09T08:30:18.993Z,58.09
2024-05-09T08:31:27.568Z,57.21
2024-05-09T08:32:32.500Z,56.58
2024-05-09T08:33:37.633Z,56.53
2024-05-09T08:34:40.163Z,57.04
2024-05-09T08:35:42.444Z,57.33
2024-05-09T08:36:47.397Z,57.41
2024-05-09T08:37:54.636Z,57.15
2024-05-09T08:38:57.089Z,56.68
2024-05-09T08:39:59.290Z,55.29
2024-05-09T08:41:04.051Z,55.24
2024-05-09T08:42:10.586Z,55.97
2024-05-09T08:44:23.239Z,56.61
2024-05-09T08:45:26.267Z,56.52
2024-05-09T08:46:32.896Z,56.61
2024-05-09T08:47:35.243Z,56.78
2024-05-09T08:48:40.462Z,57.00
2024-05-09T08:49:45.445Z,57.84
2024-05-09T08:50:50.979Z,56.12
2024-05-09T08:51:56.111Z,54.73
2024-05-09T08:53:01.056Z,54.52
2024-05-09T08:54:05.340Z,53.23
2024-05-09T08:55:08.035Z,54.87
2024-05-09T08:56:14.356Z,55.18
2024-05-09T08:57:17.033Z,55.45
2024-05-09T08:58:20.335Z,56.09
2024-05-09T08:59:36.641Z,56.03
2024-05-09T09:00:40.591Z,55.69
2024-05-09T09:01:45.489Z,55.14
2024-05-09T09:02:49.624Z,55.39
2024-05-09T09:03:55.739Z,53.24
2024-05-09T09:05:05.405Z,53.15
2024-05-09T09:06:11.684Z,53.75
2024-05-09T09:07:19.061Z,54.24
2024-05-09T09:08:24.986Z,54.76
2024-05-09T09:09:28.130Z,54.67
2024-05-09T09:10:33.386Z,53.99
2024-05-09T09:11:35.857Z,53.32
2024-05-09T09:12:40.693Z,53.35
2024-05-09T09:13:42.953Z,53.49
2024-05-09T09:14:45.144Z,53.19
2024-05-09T09:15:50.310Z,52.80
2024-05-09T09:16:56.504Z,53.38
2024-05-09T09:18:01.722Z,52.78
2024-05-09T09:19:05.249Z,52.09
2024-05-09T09:20:14.475Z,52.61
2024-05-09T09:21:23.549Z,52.77
2024-05-09T09:22:28.460Z,51.43
2024-05-09T09:23:33.353Z,51.01
2024-05-09T09:24:35.590Z,50.80
2024-05-09T09:25:39.534Z,51.17
2024-05-09T09:26:45.239Z,50.97
2024-05-09T09:27:50.286Z,50.65
2024-05-09T09:28:52.621Z,50.49
2024-05-09T09:29:56.823Z,50.68
2024-05-09T09:31:05.597Z,49.97
2024-05-09T09:32:11.366Z,49.94
2024-05-09T09:33:13.840Z,50.45
2024-05-09T09:34:18.024Z,51.04
2024-05-09T09:35:23.001Z,50.55
2024-05-09T09:36:29.643Z,51.05
2024-05-09T09:37:38.336Z,51.25
2024-05-09T09:38:41.533Z,51.42
2024-05-09T09:39:49.126Z,50.74
2024-05-09T09:40:51.684Z,51.24
2024-05-09T09:41:56.424Z,51.83
2024-05-09T09:43:01.685Z,51.31
2024-05-09T09:44:09.692Z,50.99
2024-05-09T09:45:13.547Z,51.28
2024-05-09T09:46:17.727Z,51.23
2024-05-09T09:47:20.851Z,51.34
2024-05-09T09:48:28.977Z,52.00
2024-05-09T09:49:33.481Z,51.99
2024-05-09T09:50:36.300Z,52.22
2024-05-09T09:51:43.668Z,52.38
2024-05-09T09:52:53.306Z,52.10
2024-05-09T09:53:58.592Z,52.33
2024-05-09T09:55:01.936Z,52.59
2024-05-09T09:56:10.285Z,52.42
2024-05-09T09:57:12.843Z,52.61
2024-05-09T09:58:17.416Z,52.97
2024-05-09T09:59:22.705Z,52.90
2024-05-09T10:00:33.200Z,51.50
2024-05-09T10:01:36.800Z,51.92
2024-05-09T10:02:39.868Z,51.56
2024-05-09T10:03:42.626Z,52.15
2024-05-09T10:04:49.832Z,51.36
2024-05-09T10:05:52.890Z,50.53
2024-05-09T10:06:59.626Z,50.88
2024-05-09T10:08:06.814Z,50.08
2024-05-09T10:09:14.236Z,49.01
2024-05-09T10:10:29.903Z,48.69
2024-05-09T10:11:41.875Z,48.92
2024-05-09T10:13:00.028Z,48.87
2024-05-09T10:14:03.206Z,48.81
2024-05-09T10:15:10.076Z,49.34
2024-05-09T10:16:24.251Z,48.25
2024-05-09T10:17:27.542Z,49.29
2024-05-09T10:18:36.688Z,49.68
2024-05-09T10:19:41.646Z,50.00
2024-05-09T10:20:45.147Z,50.26
2024-05-09T10:21:50.056Z,49.94
2024-05-09T10:22:55.346Z,50.20
2024-05-09T10:24:02.501Z,50.16
2024-05-09T10:25:06.891Z,50.15
2024-05-09T10:26:09.473Z,50.50
2024-05-09T10:27:14.050Z,50.41
2024-05-09T10:28:19.834Z,50.10
2024-05-09T10:29:24.506Z,49.81
2024-05-09T10:30:34.069Z,49.76
2024-05-09T10:31:43.948Z,50.27
2024-05-09T10:32:53.640Z,50.58
2024-05-09T10:33:56.749Z,50.43
2024-05-09T10:35:02.968Z,50.87
2024-05-09T10:36:11.334Z,50.55
2024-05-09T10:37:14.731Z,50.10
2024-05-09T10:38:20.209Z,50.13
2024-05-09T10:39:54.928Z,50.43
2024-05-09T10:41:00.618Z,50.39
2024-05-09T10:42:04.300Z,49.98
2024-05-09T10:43:08.069Z,50.42
2024-05-09T10:44:18.813Z,50.68
2024-05-09T10:47:02.402Z,50.41
2024-05-09T10:48:08.791Z,50.48
2024-05-09T10:49:24.702Z,50.64
2024-05-09T10:50:31.839Z,50.86
2024-05-09T10:51:37.352Z,50.66
2024-05-09T10:52:43.377Z,50.61
2024-05-09T10:53:47.663Z,50.51
2024-05-09T10:55:01.654Z,50.69
2024-05-09T10:56:09.589Z,50.45
2024-05-09T10:57:14.080Z,50.79
2024-05-09T10:58:17.875Z,49.11
2024-05-09T10:59:23.770Z,49.90
2024-05-09T11:00:35.790Z,50.31
2024-05-09T11:01:41.027Z,50.41
2024-05-09T11:02:48.318Z,50.83
2024-05-09T11:03:52.937Z,51.11
2024-05-09T11:05:20.423Z,51.38
2024-05-09T11:06:28.616Z,51.19
2024-05-09T11:07:31.129Z,51.47
2024-05-09T11:08:34.241Z,51.66
2024-05-09T11:09:39.995Z,51.72
2024-05-09T11:10:45.596Z,51.13
2024-05-09T11:11:50.465Z,51.18
2024-05-09T11:12:56.066Z,51.44
2024-05-09T11:13:58.813Z,50.95
2024-05-09T11:15:01.466Z,49.34
2024-05-09T11:16:05.194Z,48.87
2024-05-09T11:17:12.781Z,49.49
2024-05-09T11:18:24.742Z,49.92
2024-05-09T11:19:30.733Z,50.37
2024-05-09T11:20:39.126Z,50.24
2024-05-09T11:21:41.531Z,50.38
2024-05-09T11:22:46.191Z,50.67
2024-05-09T11:23:49.715Z,51.05
2024-05-09T11:24:55.347Z,50.11
2024-05-09T11:26:00.311Z,48.89
2024-05-09T11:27:04.219Z,48.91
2024-05-09T11:28:08.488Z,48.98
2024-05-09T11:29:17.847Z,48.46
2024-05-09T11:30:29.735Z,48.69
2024-05-09T11:31:45.540Z,48.39
2024-05-09T11:32:50.655Z,48.94
2024-05-09T11:33:55.426Z,49.32
2024-05-09T11:34:57.764Z,49.11
2024-05-09T11:36:02.886Z,49.02
2024-05-09T11:37:05.676Z,48.66
2024-05-09T11:38:08.066Z,49.01
2024-05-09T11:39:14.832Z,47.88
2024-05-09T11:40:25.475Z,48.27
2024-05-09T11:41:35.911Z,48.51
2024-05-09T11:42:38.670Z,48.05
2024-05-09T11:43:40.918Z,48.27
2024-05-09T11:44:47.779Z,47.98
2024-05-09T11:45:50.160Z,47.64
2024-05-09T11:46:52.539Z,47.61
2024-05-09T11:47:55.309Z,47.74
2024-05-09T11:49:00.613Z,47.66
2024-05-09T11:50:07.981Z,48.39
2024-05-09T11:51:12.443Z,49.51
2024-05-09T11:52:17.416Z,48.94
2024-05-09T11:53:19.662Z,48.95
2024-05-09T11:54:22.005Z,48.09
2024-05-09T11:55:28.192Z,47.14
2024-05-09T11:56:36.154Z,47.33
2024-05-09T11:57:39.100Z,47.46
2024-05-09T11:58:41.616Z,47.44
2024-05-09T11:59:44.319Z,47.51
2024-05-09T12:00:51.458Z,47.77
2024-05-09T12:01:53.978Z,48.53
2024-05-09T12:02:58.876Z,48.40
2024-05-09T12:04:01.399Z,48.73
2024-05-09T12:05:07.000Z,49.67
2024-05-09T12:06:11.732Z,48.93
2024-05-09T12:07:14.143Z,49.30
2024-05-09T12:08:16.564Z,48.95
2024-05-09T12:09:21.517Z,49.65
2024-05-09T12:11:30.392Z,50.34
2024-05-09T12:12:37.295Z,50.62
2024-05-09T12:13:42.429Z,50.17
2024-05-09T12:14:44.848Z,49.97
2024-05-09T12:15:47.101Z,49.97
2024-05-09T12:16:54.573Z,49.78
2024-05-09T12:17:59.097Z,49.77
2024-05-09T12:19:04.196Z,50.35
2024-05-09T12:20:20.973Z,50.64
2024-05-09T12:21:28.094Z,50.60
2024-05-09T12:22:32.666Z,50.84
2024-05-09T12:23:37.614Z,50.74
2024-05-09T12:24:39.765Z,51.10
2024-05-09T12:25:41.991Z,51.87
2024-05-09T12:26:44.254Z,50.28
2024-05-09T12:27:54.094Z,50.89
2024-05-09T12:28:56.314Z,50.61
2024-05-09T12:29:58.482Z,50.77
2024-05-09T12:31:00.729Z,51.20
2024-05-09T12:32:05.659Z,49.66
2024-05-09T12:33:11.876Z,48.36
2024-05-09T12:34:16.456Z,47.74
2024-05-09T12:35:21.344Z,48.15
2024-05-09T12:36:23.574Z,47.89
2024-05-09T12:37:25.987Z,48.20
2024-05-09T12:38:30.301Z,48.30
2024-05-09T12:39:35.251Z,48.91
2024-05-09T12:40:39.036Z,48.75
2024-05-09T12:41:41.801Z,47.57
2024-05-09T12:42:46.656Z,47.96
2024-05-09T12:43:53.578Z,46.83
2024-05-09T12:44:55.835Z,46.64
2024-05-09T12:46:01.105Z,46.96
2024-05-09T12:47:03.539Z,47.35
2024-05-09T12:48:08.535Z,47.12
2024-05-09T12:49:18.695Z,47.52
2024-05-09T12:50:29.214Z,48.52
2024-05-09T12:51:34.640Z,47.91
2024-05-09T12:52:36.986Z,47.46
2024-05-09T12:53:41.875Z,47.61
2024-05-09T12:54:46.239Z,47.12
2024-05-09T12:55:56.284Z,46.08
2024-05-09T12:57:04.726Z,46.62
2024-05-09T12:58:07.314Z,46.89
2024-05-09T12:59:12.326Z,46.22
2024-05-09T13:00:24.168Z,45.45
2024-05-09T13:01:33.655Z,45.67
2024-05-09T13:02:36.279Z,46.03
2024-05-09T13:03:38.852Z,46.60
2024-05-09T13:04:43.878Z,46.47
2024-05-09T13:05:49.237Z,46.60
2024-05-09T13:06:51.800Z,46.47
2024-05-09T13:07:54.264Z,46.69
2024-05-09T13:08:59.187Z,46.78
2024-05-09T13:10:01.475Z,46.82
2024-05-09T13:11:05.998Z,47.44
2024-05-09T13:12:11.069Z,47.70
2024-05-09T13:13:13.590Z,47.89
2024-05-09T13:14:18.654Z,46.84
2024-05-09T13:15:23.708Z,46.38
2024-05-09T13:16:28.077Z,46.47
2024-05-09T13:17:30.700Z,46.61
2024-05-09T13:18:33.663Z,47.16
2024-05-09T13:19:38.633Z,48.02
2024-05-09T13:20:40.859Z,47.60
2024-05-09T13:21:49.803Z,47.95
2024-05-09T13:23:20.252Z,47.48
2024-05-09T13:24:22.593Z,47.38
2024-05-09T13:25:25.051Z,47.50
2024-05-09T13:26:27.283Z,47.09
2024-05-09T13:27:34.341Z,46.91
2024-05-09T13:28:36.650Z,46.75
2024-05-09T13:29:44.233Z,47.04
2024-05-09T13:30:49.290Z,48.11
2024-05-09T13:31:51.446Z,48.58
2024-05-09T13:32:55.915Z,47.58
2024-05-09T13:33:58.379Z,46.95
2024-05-09T13:35:03.347Z,47.64
2024-05-09T13:36:06.676Z,48.48
2024-05-09T13:37:09.148Z,49.37
2024-05-09T13:38:13.981Z,49.23
2024-05-09T13:39:18.986Z,48.52
2024-05-09T13:40:29.961Z,48.42
2024-05-09T13:41:36.350Z,47.00
2024-05-09T13:42:38.545Z,45.45
2024-05-09T13:43:45.430Z,45.79
2024-05-09T13:44:50.577Z,46.29
2024-05-09T13:45:55.277Z,47.07
2024-05-09T13:46:57.978Z,48.12
2024-05-09T13:48:03.847Z,47.60
2024-05-09T13:49:10.778Z,46.74
2024-05-09T13:50:23.641Z,45.91
2024-05-09T13:51:33.750Z,45.83
2024-05-09T13:52:38.690Z,45.19
2024-05-09T13:53:40.917Z,44.19
2024-05-09T13:54:45.308Z,44.19
2024-05-09T13:55:48.198Z,44.75
2024-05-09T13:56:53.227Z,44.82
2024-05-09T13:57:56.110Z,44.96
2024-05-09T13:58:58.567Z,44.78
2024-05-09T14:00:07.490Z,44.68
2024-05-09T14:01:17.298Z,44.76
2024-05-09T14:02:19.800Z,45.27
2024-05-09T14:03:22.374Z,44.59
2024-05-09T14:04:27.842Z,44.23
2024-05-09T14:05:32.433Z,44.90
2024-05-09T14:06:34.806Z,44.60
2024-05-09T14:07:39.879Z,45.28
2024-05-09T14:08:42.233Z,45.15
2024-05-09T14:09:47.141Z,44.91